Time;durP1;ratioP1;P1;durP2;ratioP2;P2;SDS_P1;SDS_P2;PMS_P1;PMS_P2;Temp;Humidity;BMP_temperature;BMP_pressure;BME280_temperature;BME280_humidity;BME280_pressure;Samples;Min_cycle;Max_cycle;Signal;HPM_P1;HPM_P2
2021/03/25 00:00:28;;;;;;;19.10;12.30;;;9.80;99.90;;;;;;5035051;28;20206;-82
2021/03/25 00:02:58;;;;;;;19.40;12.53;;;9.80;99.90;;;;;;5051658;28;20207;-82
2021/03/25 00:05:26;;;;;;;17.83;12.03;;;9.80;99.90;;;;;;5046131;28;20239;-82
2021/03/25 00:07:53;;;;;;;18.63;11.53;;;9.80;99.90;;;;;;5047727;28;20219;-82
2021/03/25 00:10:23;;;;;;;15.23;11.97;;;9.80;99.90;;;;;;5041730;28;20291;-82
2021/03/25 00:12:50;;;;;;;17.07;10.97;;;9.80;99.90;;;;;;5051470;28;20235;-82
2021/03/25 00:15:17;;;;;;;19.67;12.50;;;9.80;99.90;;;;;;5038725;28;20236;-82
2021/03/25 00:17:44;;;;;;;17.83;11.73;;;9.80;99.90;;;;;;5046395;28;20309;-83
2021/03/25 00:20:14;;;;;;;17.73;11.20;;;9.70;99.90;;;;;;5034330;28;20220;-84
2021/03/25 00:22:41;;;;;;;18.53;12.13;;;9.60;99.90;;;;;;5031653;28;20750;-84
2021/03/25 00:25:09;;;;;;;16.80;11.80;;;9.60;99.90;;;;;;5040645;28;20200;-83
2021/03/25 00:27:36;;;;;;;18.23;12.17;;;9.60;99.90;;;;;;5044805;28;20490;-83
2021/03/25 00:30:05;;;;;;;18.30;12.30;;;9.60;99.90;;;;;;5047958;28;20211;-83
2021/03/25 00:32:32;;;;;;;15.73;12.00;;;9.50;99.90;;;;;;5054181;28;20237;-83
2021/03/25 00:34:59;;;;;;;20.50;12.03;;;9.50;99.90;;;;;;5050814;28;20207;-83
2021/03/25 00:37:27;;;;;;;16.37;12.33;;;9.50;99.90;;;;;;5054932;28;20605;-83
2021/03/25 00:39:53;;;;;;;17.57;11.53;;;9.50;99.90;;;;;;5045082;28;20284;-83
2021/03/25 00:42:21;;;;;;;15.67;11.40;;;9.50;99.90;;;;;;5042550;28;20307;-83
2021/03/25 00:44:47;;;;;;;15.70;10.53;;;9.50;99.90;;;;;;5036103;28;20205;-83
2021/03/25 00:47:14;;;;;;;12.27;10.30;;;9.40;99.90;;;;;;5039685;28;20203;-83
2021/03/25 00:49:40;;;;;;;14.03;10.50;;;9.40;99.90;;;;;;5044714;28;20230;-83
2021/03/25 00:52:07;;;;;;;17.10;10.70;;;9.40;99.90;;;;;;5046513;28;20672;-83
2021/03/25 00:54:35;;;;;;;12.93;10.17;;;9.40;99.90;;;;;;5055071;28;20227;-83
2021/03/25 00:57:01;;;;;;;16.93;11.47;;;9.40;99.90;;;;;;5052365;28;20714;-83
2021/03/25 00:59:28;;;;;;;18.13;11.43;;;9.30;99.90;;;;;;5035467;28;20203;-83
2021/03/25 01:01:54;;;;;;;16.60;11.03;;;9.30;99.90;;;;;;5050923;28;20250;-83
2021/03/25 01:04:21;;;;;;;15.83;10.73;;;9.30;99.90;;;;;;5054852;28;20230;-83
2021/03/25 01:06:47;;;;;;;14.90;10.63;;;9.30;99.90;;;;;;5054955;28;20237;-83
2021/03/25 01:09:21;;;;;;;12.17;10.00;;;9.20;99.90;;;;;;5055056;28;20752;-83
2021/03/25 01:11:49;;;;;;;12.13;9.83;;;9.20;99.90;;;;;;5054776;28;20206;-83
2021/03/25 01:14:20;;;;;;;15.97;10.60;;;9.20;99.90;;;;;;5055232;28;20610;-83
2021/03/25 01:16:48;;;;;;;14.53;10.47;;;9.30;99.90;;;;;;5052601;28;20823;-83
2021/03/25 01:19:19;;;;;;;16.20;10.00;;;9.20;99.90;;;;;;5047131;28;20198;-83
2021/03/25 01:21:46;;;;;;;16.80;11.30;;;9.30;99.90;;;;;;5051506;28;20196;-83
2021/03/25 01:24:13;;;;;;;16.60;10.57;;;9.20;99.90;;;;;;5035515;28;20256;-83
2021/03/25 01:26:40;;;;;;;13.37;10.13;;;9.30;99.90;;;;;;5041615;28;20368;-84
2021/03/25 01:29:08;;;;;;;14.20;9.70;;;9.30;99.90;;;;;;5035672;28;20224;-83
2021/03/25 01:31:35;;;;;;;13.93;9.93;;;9.30;99.90;;;;;;5035183;28;20211;-83
2021/03/25 01:34:03;;;;;;;16.13;10.43;;;9.30;99.90;;;;;;5038979;28;20217;-82
2021/03/25 01:36:30;;;;;;;14.33;9.63;;;9.20;99.90;;;;;;5046238;28;20262;-82
2021/03/25 01:38:56;;;;;;;15.60;10.40;;;9.20;99.90;;;;;;5049863;28;20207;-84
2021/03/25 01:41:27;;;;;;;13.03;10.33;;;9.20;99.90;;;;;;5034488;28;20236;-83
2021/03/25 01:43:54;;;;;;;16.63;10.13;;;9.30;99.90;;;;;;5034772;28;20215;-83
2021/03/25 01:46:27;;;;;;;14.27;10.47;;;9.20;99.90;;;;;;5041945;28;20682;-83
2021/03/25 01:48:56;;;;;;;13.27;9.50;;;9.20;99.90;;;;;;5037774;28;20265;-82
2021/03/25 01:51:46;;;;;;;15.63;10.23;;;9.20;99.90;;;;;;5044722;28;20666;-83
2021/03/25 01:54:45;;;;;;;14.07;9.50;;;9.20;99.90;;;;;;5024643;28;20228;-83
2021/03/25 01:57:58;;;;;;;14.10;9.33;;;9.20;99.90;;;;;;5045608;28;20594;-83
2021/03/25 02:00:32;;;;;;;13.30;9.50;;;9.20;99.90;;;;;;5044834;28;20242;-84
2021/03/25 02:03:32;;;;;;;15.73;9.40;;;9.20;99.90;;;;;;5054187;28;20245;-82
2021/03/25 02:06:07;;;;;;;12.13;9.50;;;9.20;99.90;;;;;;5050848;28;20201;-82
2021/03/25 02:08:48;;;;;;;11.93;8.87;;;9.20;99.90;;;;;;5033991;28;20236;-83
2021/03/25 02:11:26;;;;;;;12.03;9.13;;;9.20;99.90;;;;;;5052080;28;20300;-82
2021/03/25 02:13:59;;;;;;;14.67;9.17;;;9.20;99.90;;;;;;5038879;28;20231;-82
2021/03/25 02:16:30;;;;;;;12.63;8.67;;;9.20;99.90;;;;;;5044682;28;21690;-83
2021/03/25 02:19:06;;;;;;;13.80;8.87;;;9.20;99.90;;;;;;5033962;28;20262;-82
2021/03/25 02:22:04;;;;;;;13.87;8.10;;;9.20;99.90;;;;;;5032575;28;20199;-82
2021/03/25 02:24:37;;;;;;;12.00;8.03;;;9.20;99.90;;;;;;5022417;28;20228;-82
2021/03/25 02:27:28;;;;;;;11.80;7.70;;;9.20;99.90;;;;;;5037160;28;20222;-79
2021/03/25 02:29:59;;;;;;;11.20;7.47;;;9.20;99.90;;;;;;5046259;28;20235;-79
2021/03/25 02:32:30;;;;;;;14.20;8.00;;;9.10;99.90;;;;;;5039790;28;20243;-79
2021/03/25 02:35:01;;;;;;;10.23;7.13;;;9.10;99.90;;;;;;5035552;28;20304;-79
2021/03/25 02:37:29;;;;;;;11.00;6.80;;;9.10;99.90;;;;;;5033253;28;20223;-79
2021/03/25 02:40:02;;;;;;;12.90;6.90;;;9.10;99.90;;;;;;5033676;28;20232;-79
2021/03/25 02:42:33;;;;;;;14.10;7.57;;;9.00;99.90;;;;;;5033496;28;20210;-79
2021/03/25 02:45:06;;;;;;;9.67;7.10;;;9.00;99.90;;;;;;5033800;28;20698;-79
2021/03/25 02:47:37;;;;;;;12.17;6.67;;;9.00;99.90;;;;;;5046870;28;20228;-79
2021/03/25 02:50:09;;;;;;;10.77;6.50;;;9.00;99.90;;;;;;5035943;28;20203;-79
2021/03/25 02:52:39;;;;;;;10.10;6.20;;;9.00;99.90;;;;;;5033269;28;20232;-79
2021/03/25 02:55:10;;;;;;;10.13;6.40;;;8.90;99.90;;;;;;5045262;28;20229;-79
2021/03/25 02:57:42;;;;;;;11.13;7.43;;;8.90;99.90;;;;;;5034404;28;20244;-79
2021/03/25 03:00:14;;;;;;;12.83;6.40;;;8.90;99.90;;;;;;5050449;28;20235;-79
2021/03/25 03:02:45;;;;;;;9.17;6.90;;;8.80;99.90;;;;;;5047752;28;20232;-79
2021/03/25 03:05:17;;;;;;;9.20;6.93;;;8.80;99.90;;;;;;5044344;28;20195;-79
2021/03/25 03:07:47;;;;;;;9.10;6.40;;;8.70;99.90;;;;;;5052488;28;20222;-79
2021/03/25 03:10:20;;;;;;;10.67;7.00;;;8.70;99.90;;;;;;5035242;28;20679;-79
2021/03/25 03:12:49;;;;;;;14.87;7.10;;;8.70;99.90;;;;;;5053147;28;20233;-79
2021/03/25 03:15:22;;;;;;;7.50;6.37;;;8.70;99.90;;;;;;5053062;28;20280;-79
2021/03/25 03:17:57;;;;;;;12.07;6.73;;;8.70;99.90;;;;;;5042042;28;20254;-79
2021/03/25 03:20:27;;;;;;;10.47;6.40;;;8.70;99.90;;;;;;5046948;28;20237;-79
2021/03/25 03:22:54;;;;;;;11.17;6.70;;;8.70;99.90;;;;;;5050374;28;20261;-79
2021/03/25 03:25:24;;;;;;;7.93;6.30;;;8.70;99.90;;;;;;5045347;28;20679;-79
2021/03/25 03:27:53;;;;;;;11.57;5.87;;;8.70;99.90;;;;;;5038014;28;20662;-79
2021/03/25 03:30:25;;;;;;;11.90;6.03;;;8.70;99.90;;;;;;5040922;28;20578;-79
2021/03/25 03:32:56;;;;;;;9.17;5.53;;;8.70;99.90;;;;;;5033251;28;20230;-79
2021/03/25 03:35:28;;;;;;;8.63;5.00;;;8.70;99.90;;;;;;5052885;28;20231;-79
2021/03/25 03:37:57;;;;;;;9.40;5.43;;;8.60;99.90;;;;;;5052055;28;20231;-79
2021/03/25 03:40:27;;;;;;;10.60;4.50;;;8.60;99.90;;;;;;5043051;28;20261;-79
2021/03/25 03:42:59;;;;;;;8.47;4.67;;;8.50;99.90;;;;;;5018194;28;20628;-79
2021/03/25 03:45:28;;;;;;;8.93;4.50;;;8.40;99.90;;;;;;5032220;28;20258;-79
2021/03/25 03:47:59;;;;;;;7.77;4.50;;;8.30;99.90;;;;;;5039881;28;20245;-79
2021/03/25 03:50:29;;;;;;;10.00;4.47;;;8.20;99.90;;;;;;5046022;28;20669;-79
2021/03/25 03:52:56;;;;;;;10.17;4.10;;;8.00;99.90;;;;;;5045691;28;20719;-79
2021/03/25 03:55:23;;;;;;;6.90;3.60;;;7.90;99.90;;;;;;5043581;28;20204;-79
2021/03/25 03:57:56;;;;;;;10.17;3.50;;;7.80;99.90;;;;;;5051832;28;20265;-79
2021/03/25 04:00:29;;;;;;;9.27;3.53;;;7.80;99.90;;;;;;5052607;28;20200;-79
2021/03/25 04:03:05;;;;;;;8.67;3.90;;;7.60;99.90;;;;;;5051993;28;20210;-79
2021/03/25 04:05:35;;;;;;;5.70;3.53;;;7.50;99.90;;;;;;5051522;28;20700;-79
2021/03/25 04:08:07;;;;;;;9.47;3.67;;;7.40;99.90;;;;;;5046805;28;20225;-79
2021/03/25 04:10:37;;;;;;;7.23;3.30;;;7.30;99.90;;;;;;5032543;28;20233;-79
2021/03/25 04:13:06;;;;;;;8.20;3.83;;;7.10;99.90;;;;;;5032087;28;20334;-79
2021/03/25 04:15:34;;;;;;;7.63;3.30;;;7.10;99.90;;;;;;5049761;28;20231;-79
2021/03/25 04:18:06;;;;;;;7.43;3.40;;;7.00;99.90;;;;;;5050964;28;20332;-79
2021/03/25 04:20:35;;;;;;;8.97;3.33;;;6.90;99.90;;;;;;5031902;28;20200;-79
2021/03/25 04:23:12;;;;;;;9.13;3.80;;;6.80;99.90;;;;;;5049392;28;20711;-79
2021/03/25 04:25:42;;;;;;;10.43;4.00;;;6.70;99.90;;;;;;5051209;28;20240;-79
2021/03/25 04:28:14;;;;;;;12.30;4.10;;;6.60;99.90;;;;;;5048078;28;20248;-79
2021/03/25 04:30:45;;;;;;;11.90;4.60;;;6.60;99.90;;;;;;5042716;28;20622;-79
2021/03/25 04:33:14;;;;;;;8.03;4.17;;;6.50;99.90;;;;;;5031947;28;20210;-78
2021/03/25 04:35:42;;;;;;;9.43;5.33;;;6.40;99.90;;;;;;5035512;28;20253;-78
2021/03/25 04:38:11;;;;;;;10.40;5.70;;;6.40;99.90;;;;;;5033813;28;20294;-78
2021/03/25 04:40:38;;;;;;;9.80;5.03;;;6.30;99.90;;;;;;5050857;28;20234;-78
2021/03/25 04:43:06;;;;;;;9.50;4.73;;;6.20;99.90;;;;;;5051399;28;20246;-79
2021/03/25 04:45:45;;;;;;;12.63;4.60;;;6.20;99.90;;;;;;5031634;28;20204;-79
2021/03/25 04:48:17;;;;;;;8.90;4.47;;;6.10;99.90;;;;;;5051512;28;20206;-79
2021/03/25 04:50:55;;;;;;;12.23;5.57;;;6.10;99.90;;;;;;5051216;28;20272;-78
2021/03/25 04:53:24;;;;;;;11.67;4.50;;;6.10;99.90;;;;;;5051798;28;20234;-79
2021/03/25 04:55:52;;;;;;;9.73;4.83;;;6.00;99.90;;;;;;5046656;28;20329;-79
2021/03/25 04:58:27;;;;;;;9.90;5.03;;;5.90;99.90;;;;;;5051136;28;20657;-79
2021/03/25 05:00:54;;;;;;;7.93;4.47;;;5.90;99.90;;;;;;5051296;28;20234;-78
2021/03/25 05:03:24;;;;;;;9.17;4.60;;;5.80;99.90;;;;;;5051349;28;20257;-79
2021/03/25 05:05:54;;;;;;;12.43;5.03;;;5.80;99.90;;;;;;5040085;28;20746;-78
2021/03/25 05:08:24;;;;;;;13.53;5.80;;;5.80;99.90;;;;;;5038202;28;20314;-78
2021/03/25 05:10:59;;;;;;;14.83;5.67;;;5.60;99.90;;;;;;5040421;28;20326;-78
2021/03/25 05:13:28;;;;;;;13.17;5.87;;;5.60;99.90;;;;;;5026384;28;20238;-78
2021/03/25 05:16:14;;;;;;;11.40;5.80;;;5.60;99.90;;;;;;5041511;28;20235;-78
2021/03/25 05:18:49;;;;;;;14.03;5.37;;;5.50;99.90;;;;;;5028285;28;20222;-78
2021/03/25 05:21:25;;;;;;;9.97;4.90;;;5.50;99.90;;;;;;5036100;28;20238;-78
2021/03/25 05:24:01;;;;;;;10.77;4.90;;;5.50;99.90;;;;;;5037641;28;20239;-78
2021/03/25 05:26:33;;;;;;;9.47;4.40;;;5.40;99.90;;;;;;5048789;28;20226;-78
2021/03/25 05:29:03;;;;;;;9.63;4.57;;;5.40;99.90;;;;;;5054558;28;20202;-78
2021/03/25 05:31:31;;;;;;;10.50;4.83;;;5.30;99.90;;;;;;5054027;28;20206;-78
2021/03/25 05:34:04;;;;;;;9.37;4.83;;;5.20;99.90;;;;;;5044249;28;20237;-78
2021/03/25 05:36:31;;;;;;;11.30;4.67;;;5.20;99.90;;;;;;5054807;28;20227;-78
2021/03/25 05:38:58;;;;;;;8.30;4.30;;;5.00;99.90;;;;;;5055010;28;20202;-78
2021/03/25 05:41:31;;;;;;;10.87;4.30;;;5.20;99.90;;;;;;5054035;28;20578;-78
2021/03/25 05:44:29;;;;;;;11.17;4.17;;;5.20;99.90;;;;;;5054784;28;20688;-78
2021/03/25 05:47:07;;;;;;;10.67;4.30;;;5.30;99.90;;;;;;5035725;28;20226;-78
2021/03/25 05:49:41;;;;;;;12.83;4.37;;;5.20;99.90;;;;;;5040913;28;20239;-78
2021/03/25 05:52:27;;;;;;;10.60;4.37;;;5.10;99.90;;;;;;5045554;28;20260;-77
2021/03/25 05:55:03;;;;;;;10.40;4.20;;;5.10;99.90;;;;;;5049340;28;20678;-77
2021/03/25 05:57:40;;;;;;;11.70;4.80;;;5.10;99.90;;;;;;5053410;28;20222;-78
2021/03/25 06:00:18;;;;;;;14.30;6.23;;;5.20;99.90;;;;;;5053502;28;20257;-77
2021/03/25 06:02:50;;;;;;;14.80;7.73;;;5.20;99.90;;;;;;5044639;28;20244;-77
2021/03/25 06:05:18;;;;;;;16.73;8.30;;;5.20;99.90;;;;;;5038210;28;20246;-76
2021/03/25 06:08:16;;;;;;;17.17;8.50;;;5.20;99.90;;;;;;5044067;28;20229;-76
2021/03/25 06:10:56;;;;;;;15.53;8.47;;;5.10;99.90;;;;;;5041249;28;20199;-75
2021/03/25 06:13:46;;;;;;;16.40;7.97;;;5.20;99.90;;;;;;5036520;28;20709;-75
2021/03/25 06:16:29;;;;;;;15.20;6.90;;;5.30;99.90;;;;;;5032182;28;20241;-77
2021/03/25 06:19:17;;;;;;;16.10;6.73;;;5.40;99.90;;;;;;5054012;28;20241;-76
2021/03/25 06:22:05;;;;;;;15.63;5.83;;;5.50;99.90;;;;;;5040043;28;20239;-79
2021/03/25 06:25:20;;;;;;;12.47;6.00;;;5.60;99.90;;;;;;5053843;28;20207;-75
2021/03/25 06:28:21;;;;;;;15.47;5.93;;;5.70;99.90;;;;;;5011930;28;20196;-80
2021/03/25 06:31:13;;;;;;;12.30;6.60;;;5.80;99.90;;;;;;5006030;28;20296;-77
2021/03/25 06:33:49;;;;;;;15.83;6.77;;;5.90;99.90;;;;;;5005497;28;20233;-78
2021/03/25 06:36:19;;;;;;;15.37;6.67;;;6.10;99.90;;;;;;5008546;28;20231;-80
2021/03/25 06:38:51;;;;;;;12.93;6.93;;;6.20;99.90;;;;;;4998552;28;20641;-78
2021/03/25 06:41:21;;;;;;;11.93;6.53;;;6.40;99.90;;;;;;5007418;28;20781;-77
2021/03/25 06:43:53;;;;;;;12.17;6.20;;;6.50;99.90;;;;;;5006223;28;20228;-77
2021/03/25 06:46:24;;;;;;;11.43;6.53;;;6.50;99.90;;;;;;5011125;28;20229;-80
2021/03/25 06:48:54;;;;;;;16.50;7.33;;;6.70;99.90;;;;;;5009773;28;20309;-77
2021/03/25 06:51:25;;;;;;;13.40;7.10;;;6.90;99.90;;;;;;4991958;28;20234;-77
2021/03/25 06:54:01;;;;;;;11.47;6.27;;;7.40;99.90;;;;;;4997712;28;20236;-77
2021/03/25 06:56:34;;;;;;;7.97;5.80;;;8.10;99.90;;;;;;5008287;28;20232;-79
2021/03/25 06:59:04;;;;;;;9.70;6.10;;;9.00;99.90;;;;;;5035372;28;20207;-81
2021/03/25 07:01:34;;;;;;;10.20;5.47;;;9.50;99.90;;;;;;5050093;28;20235;-81
2021/03/25 07:04:05;;;;;;;9.07;5.13;;;9.80;99.90;;;;;;5051770;28;20196;-81
2021/03/25 07:06:35;;;;;;;8.50;5.27;;;9.80;99.90;;;;;;5043764;28;20239;-82
2021/03/25 07:09:03;;;;;;;12.53;5.67;;;9.30;99.90;;;;;;5051896;28;20199;-82
2021/03/25 07:11:31;;;;;;;11.87;5.80;;;9.30;99.90;;;;;;5035237;28;20218;-80
2021/03/25 07:14:02;;;;;;;9.23;5.30;;;9.60;99.90;;;;;;5034903;28;20344;-79
2021/03/25 07:16:30;;;;;;;9.83;5.03;;;9.70;99.90;;;;;;5034301;28;20204;-80
2021/03/25 07:19:04;;;;;;;10.10;5.50;;;9.80;99.90;;;;;;5052221;28;20247;-81
2021/03/25 07:21:36;;;;;;;10.20;5.80;;;10.20;99.90;;;;;;5052240;28;20211;-81
2021/03/25 07:24:07;;;;;;;10.77;5.27;;;10.40;99.90;;;;;;5034562;28;20236;-82
2021/03/25 07:26:40;;;;;;;9.33;5.80;;;10.60;99.90;;;;;;5035565;28;20199;-82
2021/03/25 07:29:25;;;;;;;10.37;5.80;;;11.50;99.90;;;;;;5052296;28;20199;-82
2021/03/25 07:31:59;;;;;;;10.70;5.83;;;12.40;99.90;;;;;;5036325;28;20579;-81
2021/03/25 07:34:39;;;;;;;13.67;5.90;;;13.10;99.90;;;;;;5038349;28;20200;-82
2021/03/25 07:37:08;;;;;;;10.67;6.30;;;13.00;99.90;;;;;;5052437;28;20231;-81
2021/03/25 07:39:38;;;;;;;11.13;6.53;;;13.00;99.90;;;;;;5042238;28;20223;-82
2021/03/25 07:42:06;;;;;;;10.03;6.47;;;13.00;99.90;;;;;;5034130;28;20220;-82
2021/03/25 07:44:37;;;;;;;7.70;5.20;;;14.10;99.90;;;;;;5044830;28;20204;-82
2021/03/25 07:47:27;;;;;;;9.23;5.40;;;14.90;99.90;;;;;;5029746;28;20196;-85
2021/03/25 07:49:54;;;;;;;9.10;5.55;;;15.30;99.90;;;;;;5044887;28;20231;-86
2021/03/25 07:52:29;;;;;;;7.05;5.68;;;15.40;99.90;;;;;;5046645;28;20231;-86
2021/03/25 07:55:12;;;;;;;9.40;6.10;;;15.70;99.90;;;;;;5042869;28;20249;-87
2021/03/25 07:57:41;;;;;;;9.05;5.88;;;15.50;99.90;;;;;;5043272;28;20269;-86
2021/03/25 08:00:16;;;;;;;9.32;5.60;;;16.10;99.90;;;;;;5043440;28;20196;-87
2021/03/25 08:02:43;;;;;;;8.18;5.10;;;17.00;99.90;;;;;;5042220;28;20237;-86
2021/03/25 08:05:27;;;;;;;5.68;4.35;;;17.10;99.90;;;;;;5039832;28;20663;-87
2021/03/25 08:07:57;;;;;;;8.75;4.38;;;17.80;99.90;;;;;;5048428;28;20203;-87
2021/03/25 08:10:33;;;;;;;9.98;4.45;;;18.40;99.90;;;;;;5050527;28;20211;-87
2021/03/25 08:13:03;;;;;;;6.25;4.00;;;18.20;99.90;;;;;;5044557;28;20195;-87
2021/03/25 08:15:36;;;;;;;10.05;4.03;;;18.40;99.90;;;;;;5048411;28;20223;-87
2021/03/25 08:18:46;;;;;;;7.57;3.33;;;18.00;99.90;;;;;;5032266;28;20692;-86
2021/03/25 08:21:25;;;;;;;5.93;2.80;;;19.10;99.90;;;;;;4975483;28;20706;-84
2021/03/25 08:24:42;;;;;;;7.00;3.33;;;18.50;99.90;;;;;;4983401;28;20244;-84
2021/03/25 08:27:22;;;;;;;7.68;3.47;;;18.60;99.90;;;;;;4965783;28;20644;-84
2021/03/25 08:29:57;;;;;;;7.07;3.30;;;18.40;99.90;;;;;;4983221;28;20197;-83
2021/03/25 08:32:34;;;;;;;4.20;2.42;;;18.60;99.90;;;;;;4982981;28;20245;-84
2021/03/25 08:35:16;;;;;;;6.53;2.67;;;18.60;99.90;;;;;;4987737;28;20205;-84
2021/03/25 08:38:03;;;;;;;5.63;2.60;;;18.70;99.90;;;;;;4974056;28;20222;-84
2021/03/25 08:40:40;;;;;;;5.72;2.58;;;19.20;99.90;;;;;;4975841;28;20238;-84
2021/03/25 08:43:18;;;;;;;11.63;3.42;;;18.90;99.90;;;;;;4980283;28;20210;-84
2021/03/25 08:45:51;;;;;;;4.05;2.22;;;19.90;99.90;;;;;;4980179;28;20223;-85
2021/03/25 08:48:25;;;;;;;5.18;2.45;;;19.60;99.90;;;;;;4981023;28;20206;-84
2021/03/25 08:50:57;;;;;;;8.00;2.60;;;19.40;99.90;;;;;;4981714;28;20209;-84
2021/03/25 08:53:36;;;;;;;6.88;2.92;;;19.70;99.90;;;;;;4984022;28;20202;-85
2021/03/25 08:56:08;;;;;;;5.35;2.45;;;19.50;99.90;;;;;;4976622;28;20214;-85
2021/03/25 08:58:39;;;;;;;5.97;2.55;;;19.70;99.90;;;;;;5035773;28;20240;-85
2021/03/25 09:01:13;;;;;;;7.82;2.58;;;21.10;99.90;;;;;;5054080;28;20199;-85
2021/03/25 09:03:44;;;;;;;6.10;3.10;;;20.40;99.90;;;;;;5052605;28;20734;-84
2021/03/25 09:06:15;;;;;;;7.10;2.38;;;19.80;99.90;;;;;;5038198;28;20288;-85
2021/03/25 09:08:44;;;;;;;4.85;2.30;;;20.20;99.90;;;;;;5052285;28;20204;-84
2021/03/25 09:11:13;;;;;;;5.63;2.50;;;20.60;99.90;;;;;;5054123;28;20209;-84
2021/03/25 09:13:44;;;;;;;9.40;2.70;;;20.90;99.90;;;;;;5054031;28;20571;-84
2021/03/25 09:16:20;;;;;;;6.25;2.00;;;20.70;99.90;;;;;;5039198;28;20250;-86
2021/03/25 09:18:48;;;;;;;7.93;2.42;;;21.60;99.90;;;;;;5052802;28;20243;-85
2021/03/25 09:21:17;;;;;;;5.18;1.60;;;21.70;99.90;;;;;;5054397;28;20196;-85
2021/03/25 09:24:05;;;;;;;6.38;2.13;;;22.10;99.90;;;;;;5053761;28;20239;-85
2021/03/25 09:26:51;;;;;;;6.22;2.28;;;21.50;99.90;;;;;;5037850;28;20204;-85
2021/03/25 09:29:21;;;;;;;4.18;1.70;;;21.60;99.90;;;;;;5049016;28;20207;-85
2021/03/25 09:32:33;;;;;;;4.07;1.90;;;22.00;99.90;;;;;;5052426;28;20228;-85
2021/03/25 09:35:01;;;;;;;4.72;1.80;;;22.00;99.90;;;;;;5049010;28;20202;-85
2021/03/25 09:37:32;;;;;;;4.55;1.75;;;21.90;99.90;;;;;;5037562;28;20695;-85
2021/03/25 09:40:12;;;;;;;5.68;1.77;;;22.10;99.90;;;;;;5045715;28;20212;-85
2021/03/25 09:42:39;;;;;;;5.47;1.75;;;22.00;99.90;;;;;;5031728;28;20655;-84
2021/03/25 09:45:30;;;;;;;5.85;1.88;;;20.50;99.90;;;;;;5034783;28;20549;-85
2021/03/25 09:48:00;;;;;;;4.70;1.60;;;21.30;99.90;;;;;;5051059;28;20203;-85
2021/03/25 09:50:28;;;;;;;7.03;2.35;;;19.80;99.90;;;;;;5041349;28;20568;-85
2021/03/25 09:53:11;;;;;;;6.75;2.78;;;20.80;99.90;;;;;;5049564;28;20208;-85
2021/03/25 09:55:49;;;;;;;7.03;2.10;;;20.50;99.90;;;;;;5053872;28;20200;-85
2021/03/25 09:58:37;;;;;;;6.18;2.00;;;21.90;99.90;;;;;;5048730;28;20223;-85
2021/03/25 10:01:07;;;;;;;5.85;2.13;;;21.70;99.90;;;;;;5050830;28;20203;-85
2021/03/25 10:04:22;;;;;;;6.10;2.30;;;22.10;99.90;;;;;;5047760;28;20208;-85
2021/03/25 10:06:58;;;;;;;6.18;2.25;;;22.30;99.90;;;;;;5053406;28;20544;-85
2021/03/25 10:09:50;;;;;;;6.28;2.10;;;22.00;99.90;;;;;;5037971;28;20211;-86
2021/03/25 10:12:49;;;;;;;6.00;2.60;;;23.00;99.90;;;;;;5051202;28;20193;-85
2021/03/25 10:15:54;;;;;;;4.20;1.90;;;23.00;99.90;;;;;;5045623;28;20200;-85
2021/03/25 10:18:53;;;;;;;7.55;2.53;;;23.00;99.90;;;;;;5048168;28;20247;-85
2021/03/25 10:21:36;;;;;;;6.05;2.55;;;22.50;99.90;;;;;;5038579;28;20628;-85
2021/03/25 10:24:04;;;;;;;6.57;2.80;;;22.90;99.90;;;;;;5042516;28;20734;-85
2021/03/25 10:26:34;;;;;;;7.60;2.28;;;23.10;99.90;;;;;;5048373;28;20199;-87
2021/03/25 10:29:05;;;;;;;4.65;1.85;;;23.60;99.90;;;;;;5037978;28;20204;-86
2021/03/25 10:31:42;;;;;;;3.72;2.05;;;24.00;99.90;;;;;;5050127;28;20622;-86
2021/03/25 10:34:17;;;;;;;4.35;2.13;;;23.40;99.90;;;;;;5044854;28;20199;-87
2021/03/25 10:36:49;;;;;;;4.78;2.08;;;20.80;99.90;;;;;;5043204;28;20250;-85
2021/03/25 10:39:24;;;;;;;6.05;2.13;;;21.60;99.90;;;;;;5056230;28;20203;-87
2021/03/25 10:41:52;;;;;;;6.18;2.28;;;20.20;99.90;;;;;;5055933;28;20210;-86
2021/03/25 10:44:27;;;;;;;4.75;1.77;;;19.40;99.90;;;;;;5039709;28;20204;-86
2021/03/25 10:46:56;;;;;;;6.30;2.15;;;20.20;99.90;;;;;;5039101;28;20671;-86
2021/03/25 10:49:26;;;;;;;5.80;2.22;;;19.80;99.90;;;;;;5047969;28;20204;-86
2021/03/25 10:51:53;;;;;;;6.60;1.80;;;21.20;99.90;;;;;;5054991;28;20752;-87
2021/03/25 10:54:29;;;;;;;4.05;1.42;;;20.10;99.90;;;;;;5036934;28;20200;-86
2021/03/25 10:57:00;;;;;;;5.88;1.50;;;18.00;99.90;;;;;;5041587;28;20199;-85
2021/03/25 10:59:27;;;;;;;4.93;1.90;;;20.20;99.90;;;;;;5043532;28;20201;-86
2021/03/25 11:01:55;;;;;;;5.32;1.50;;;19.40;99.90;;;;;;5039732;28;20203;-86
2021/03/25 11:04:25;;;;;;;5.03;1.77;;;18.50;99.90;;;;;;5053515;28;20215;-86
2021/03/25 11:06:52;;;;;;;6.05;1.85;;;18.50;99.90;;;;;;5052879;28;20311;-87
2021/03/25 11:09:23;;;;;;;4.53;1.60;;;19.10;99.90;;;;;;5053801;28;20217;-86
2021/03/25 11:11:53;;;;;;;4.95;1.55;;;20.10;99.90;;;;;;5055346;28;20199;-84
2021/03/25 11:14:30;;;;;;;3.90;1.10;;;20.80;99.90;;;;;;5047751;28;20227;-85
2021/03/25 11:17:01;;;;;;;6.15;1.58;;;20.70;99.90;;;;;;5036871;28;20302;-85
2021/03/25 11:19:30;;;;;;;4.00;1.40;;;21.70;99.90;;;;;;5048313;28;20192;-85
2021/03/25 11:21:59;;;;;;;4.03;1.50;;;21.80;99.90;;;;;;5044608;28;20212;-84
2021/03/25 11:24:28;;;;;;;3.67;1.65;;;20.30;99.90;;;;;;5032937;28;20219;-84
2021/03/25 11:26:55;;;;;;;3.30;1.48;;;20.10;99.90;;;;;;5015323;28;20204;-84
2021/03/25 11:29:31;;;;;;;5.00;1.45;;;21.00;99.90;;;;;;5032915;28;20718;-84
2021/03/25 11:32:14;;;;;;;4.97;1.60;;;21.30;99.90;;;;;;5032812;28;20200;-84
2021/03/25 11:34:42;;;;;;;5.07;2.40;;;21.30;99.90;;;;;;5032420;28;20211;-85
2021/03/25 11:37:22;;;;;;;4.25;1.92;;;22.20;99.90;;;;;;5049513;28;20212;-85
2021/03/25 11:40:06;;;;;;;4.82;1.40;;;21.50;99.90;;;;;;5046418;28;20196;-86
2021/03/25 11:42:33;;;;;;;3.70;1.00;;;21.10;99.90;;;;;;5051839;28;20204;-86
2021/03/25 11:45:02;;;;;;;4.28;1.40;;;21.60;99.90;;;;;;5035710;28;20192;-84
2021/03/25 11:47:42;;;;;;;4.22;1.02;;;21.80;99.90;;;;;;5045467;28;20206;-86
2021/03/25 11:50:34;;;;;;;5.30;1.30;;;21.90;99.90;;;;;;5051404;28;20671;-85
2021/03/25 11:53:04;;;;;;;2.67;1.30;;;21.80;99.90;;;;;;5039736;28;20192;-87
2021/03/25 11:55:36;;;;;;;3.63;1.25;;;21.80;99.90;;;;;;5046629;28;20211;-86
2021/03/25 11:58:16;;;;;;;7.40;1.60;;;20.20;99.90;;;;;;5055774;28;20219;-86
2021/03/25 12:01:04;;;;;;;5.40;1.50;;;18.50;99.90;;;;;;5050334;28;20223;-84
2021/03/25 12:03:46;;;;;;;4.47;1.30;;;17.40;99.90;;;;;;5051769;28;20208;-85
2021/03/25 12:06:25;;;;;;;4.68;1.40;;;18.10;99.90;;;;;;5045955;28;20603;-83
2021/03/25 12:09:11;;;;;;;3.72;1.00;;;18.40;99.90;;;;;;5040825;28;20601;-86
2021/03/25 12:11:39;;;;;;;4.57;0.98;;;19.10;99.90;;;;;;5048335;28;20281;-86
2021/03/25 12:14:06;;;;;;;5.35;1.60;;;19.30;99.90;;;;;;5031905;28;20227;-85
2021/03/25 12:16:35;;;;;;;3.83;1.33;;;18.60;99.90;;;;;;5041505;28;20231;-85
2021/03/25 12:19:02;;;;;;;4.53;1.80;;;17.90;99.90;;;;;;5052560;28;20738;-86
2021/03/25 12:21:30;;;;;;;4.53;1.27;;;17.40;99.90;;;;;;5042297;28;20215;-86
2021/03/25 12:23:59;;;;;;;3.15;1.20;;;17.50;99.90;;;;;;5020873;28;20227;-86
2021/03/25 12:26:26;;;;;;;4.35;1.70;;;18.20;99.90;;;;;;5043436;28;20211;-86
2021/03/25 12:28:53;;;;;;;4.28;1.00;;;17.30;99.90;;;;;;5037114;28;20258;-86
2021/03/25 12:31:23;;;;;;;3.50;1.10;;;16.60;99.90;;;;;;5047464;28;20235;-86
2021/03/25 12:33:51;;;;;;;3.92;1.10;;;16.50;99.90;;;;;;5052643;28;20188;-86
2021/03/25 12:36:18;;;;;;;4.47;1.17;;;16.60;99.90;;;;;;5050521;28;20537;-83
2021/03/25 12:38:47;;;;;;;5.05;1.40;;;16.90;99.90;;;;;;5050616;28;20219;-85
2021/03/25 12:41:19;;;;;;;5.37;1.30;;;16.80;99.90;;;;;;5050964;28;20310;-85
2021/03/25 12:43:46;;;;;;;5.13;1.30;;;16.70;99.90;;;;;;5051134;28;20612;-86
2021/03/25 12:46:13;;;;;;;5.83;1.57;;;16.90;99.90;;;;;;5033429;28;20208;-86
2021/03/25 12:48:39;;;;;;;5.23;1.20;;;17.00;99.90;;;;;;5042052;28;20204;-86
2021/03/25 12:51:13;;;;;;;4.57;1.20;;;17.40;99.90;;;;;;5031919;28;20266;-85
2021/03/25 12:53:47;;;;;;;3.67;1.50;;;19.00;99.90;;;;;;5034265;28;20941;-87
2021/03/25 12:56:17;;;;;;;3.95;1.40;;;20.50;99.90;;;;;;5051282;28;20207;-85
2021/03/25 12:58:43;;;;;;;6.80;1.50;;;21.30;99.90;;;;;;5049517;28;20215;-85
2021/03/25 13:01:12;;;;;;;3.50;1.20;;;19.80;99.90;;;;;;5051199;28;20195;-84
2021/03/25 13:03:41;;;;;;;4.07;1.30;;;20.40;99.90;;;;;;5050350;28;20258;-85
2021/03/25 13:06:09;;;;;;;4.43;1.20;;;20.00;99.90;;;;;;5050189;28;20698;-87
2021/03/25 13:08:35;;;;;;;3.92;1.10;;;19.80;99.90;;;;;;5036000;28;20214;-86
2021/03/25 13:11:03;;;;;;;2.25;1.08;;;20.10;99.90;;;;;;5042673;28;20611;-86
2021/03/25 13:13:31;;;;;;;6.25;1.20;;;19.30;99.90;;;;;;5047284;28;20231;-85
2021/03/25 13:15:57;;;;;;;4.38;1.25;;;18.90;99.90;;;;;;5034976;28;20193;-86
2021/03/25 13:18:23;;;;;;;3.97;1.20;;;19.50;99.90;;;;;;5036010;28;20281;-85